createdAt,value
2023-03-16T00:01:07.315Z,97845.69
2023-03-16T00:03:19.417Z,97841.34
2023-03-16T00:05:28.407Z,97844.00
2023-03-16T00:07:38.045Z,97845.47
2023-03-16T00:09:46.019Z,97845.81
2023-03-16T00:11:54.120Z,97850.31
2023-03-16T00:14:04.345Z,97849.59
2023-03-16T00:16:17.239Z,97847.81
2023-03-16T00:18:30.161Z,97847.78
2023-03-16T00:20:38.110Z,97843.44
2023-03-16T00:22:45.937Z,97847.91
2023-03-16T00:24:54.059Z,97843.53
2023-03-16T00:27:01.985Z,97849.75
2023-03-16T00:29:10.211Z,97847.38
2023-03-16T00:31:18.272Z,97841.16
2023-03-16T00:33:28.795Z,97847.25
2023-03-16T00:35:36.918Z,97837.56
2023-03-16T00:37:45.059Z,97841.06
2023-03-16T00:39:53.013Z,97839.31
2023-03-16T00:42:00.929Z,97848.00
2023-03-16T00:44:09.877Z,97848.09
2023-03-16T00:46:19.688Z,97854.88
2023-03-16T00:48:30.430Z,97847.19
2023-03-16T00:50:38.574Z,97848.19
2023-03-16T00:52:46.432Z,97848.25
2023-03-16T00:54:55.689Z,97848.25
2023-03-16T00:57:04.895Z,97852.78
2023-03-16T00:59:16.072Z,97853.66
2023-03-16T01:01:24.008Z,97851.81
2023-03-16T01:03:35.142Z,97845.72
2023-03-16T01:05:44.124Z,97850.13
2023-03-16T01:07:52.494Z,97844.19
2023-03-16T01:10:00.386Z,97847.66
2023-03-16T01:12:10.985Z,97859.88
2023-03-16T01:14:18.807Z,97853.69
2023-03-16T01:16:26.864Z,97846.66
2023-03-16T01:18:37.532Z,97848.34
2023-03-16T01:20:51.178Z,97844.22
2023-03-16T01:22:59.353Z,97845.03
2023-03-16T01:25:07.821Z,97840.72
2023-03-16T01:27:17.521Z,97839.69
2023-03-16T01:29:25.865Z,97846.81
2023-03-16T01:31:35.735Z,97846.84
2023-03-16T01:33:46.823Z,97849.56
2023-03-16T01:36:03.333Z,97857.47
2023-03-16T01:38:18.942Z,97851.47
2023-03-16T01:40:27.120Z,97846.47
2023-03-16T01:42:36.198Z,97839.53
2023-03-16T01:44:56.210Z,97834.19
2023-03-16T01:47:09.834Z,97830.72
2023-03-16T01:49:23.912Z,97829.72
2023-03-16T01:51:36.651Z,97823.63
2023-03-16T01:53:48.817Z,97822.81
2023-03-16T01:56:00.516Z,97825.28
2023-03-16T01:58:08.670Z,97827.94
2023-03-16T02:00:23.889Z,97818.47
2023-03-16T02:02:44.784Z,97824.63
2023-03-16T02:05:07.325Z,97818.50
2023-03-16T02:07:17.963Z,97820.19
2023-03-16T02:09:28.341Z,97819.28
2023-03-16T02:11:37.575Z,97813.50
2023-03-16T02:13:51.178Z,97824.88
2023-03-16T02:15:59.908Z,97821.47
2023-03-16T02:18:08.625Z,97815.34
2023-03-16T02:20:30.479Z,97818.84
2023-03-16T02:22:39.885Z,97820.56
2023-03-16T02:24:48.934Z,97802.41
2023-03-16T02:27:01.827Z,97801.63
2023-03-16T02:29:31.968Z,97801.69
2023-03-16T02:31:42.916Z,97794.00
2023-03-16T02:33:53.879Z,97794.00
2023-03-16T02:36:02.008Z,97795.97
2023-03-16T02:38:13.052Z,97796.94
2023-03-16T02:40:31.115Z,97799.59
2023-03-16T02:42:42.559Z,97791.81
2023-03-16T02:44:55.353Z,97786.53
2023-03-16T02:47:16.026Z,97781.03
2023-03-16T02:49:30.744Z,97791.56
2023-03-16T02:51:39.048Z,97791.56
2023-03-16T02:53:47.164Z,97794.22
2023-03-16T02:55:56.077Z,97788.09
2023-03-16T02:58:04.892Z,97796.91
2023-03-16T03:00:17.204Z,97788.97
2023-03-16T03:02:29.333Z,97788.97
2023-03-16T03:04:37.220Z,97788.06
2023-03-16T03:06:47.763Z,97788.66
2023-03-16T03:08:55.956Z,97779.47
2023-03-16T03:11:04.131Z,97777.56
2023-03-16T03:13:12.435Z,97779.41
2023-03-16T03:15:21.999Z,97769.66
2023-03-16T03:17:43.174Z,97767.00
2023-03-16T03:19:51.866Z,97775.78
2023-03-16T03:21:59.963Z,97773.22
2023-03-16T03:24:12.795Z,97779.97
2023-03-16T03:26:37.134Z,97788.72
2023-03-16T03:28:47.730Z,97785.19
2023-03-16T03:30:55.588Z,97783.44
2023-03-16T03:33:06.572Z,97781.59
2023-03-16T03:35:16.929Z,97782.41
2023-03-16T03:37:25.477Z,97786.75
2023-03-16T03:39:33.236Z,97771.88
2023-03-16T03:41:41.236Z,97765.94
2023-03-16T03:43:50.267Z,97769.41
2023-03-16T03:46:00.865Z,97764.78
2023-03-16T03:48:14.441Z,97768.19
2023-03-16T03:50:24.760Z,97774.44
2023-03-16T03:52:40.578Z,97769.22
2023-03-16T03:54:49.148Z,97773.59
2023-03-16T03:56:58.787Z,97775.31
2023-03-16T03:59:06.877Z,97775.44
2023-03-16T04:01:33.199Z,97780.72
2023-03-16T04:03:45.216Z,97771.88
2023-03-16T04:05:54.647Z,97766.84
2023-03-16T04:08:03.070Z,97768.47
2023-03-16T04:10:12.495Z,97766.69
2023-03-16T04:12:23.062Z,97765.03
2023-03-16T04:14:32.389Z,97765.69
2023-03-16T04:16:44.410Z,97765.75
2023-03-16T04:18:57.247Z,97774.41
2023-03-16T04:21:05.341Z,97777.06
2023-03-16T04:23:14.230Z,97774.31
2023-03-16T04:25:22.344Z,97777.78
2023-03-16T04:27:36.364Z,97779.38
2023-03-16T04:29:44.985Z,97777.56
2023-03-16T04:31:54.133Z,97780.22
2023-03-16T04:34:06.635Z,97774.00
2023-03-16T04:36:14.955Z,97761.03
2023-03-16T04:38:25.668Z,97758.25
2023-03-16T04:40:39.611Z,97757.47
2023-03-16T04:42:53.980Z,97758.34
2023-03-16T04:45:02.504Z,97755.72
2023-03-16T04:47:10.788Z,97752.34
2023-03-16T04:49:23.298Z,97746.38
2023-03-16T04:51:31.824Z,97752.41
2023-03-16T04:53:49.252Z,97750.72
2023-03-16T04:56:04.430Z,97755.94
2023-03-16T04:58:13.797Z,97747.94
2023-03-16T05:00:23.742Z,97753.09
2023-03-16T05:02:58.072Z,97765.41
2023-03-16T05:05:10.022Z,97764.50
2023-03-16T05:07:22.060Z,97765.41
2023-03-16T05:09:34.238Z,97764.69
2023-03-16T05:11:42.467Z,97761.00
2023-03-16T05:13:53.590Z,97754.97
2023-03-16T05:16:02.161Z,97761.97
2023-03-16T05:18:14.854Z,97755.94
2023-03-16T05:20:26.542Z,97753.09
2023-03-16T05:22:38.678Z,97758.38
2023-03-16T05:25:03.513Z,97756.53
2023-03-16T05:27:12.450Z,97749.50
2023-03-16T05:29:20.654Z,97757.34
2023-03-16T05:31:32.825Z,97756.47
2023-03-16T05:33:44.799Z,97757.47
2023-03-16T05:36:02.410Z,97758.00
2023-03-16T05:38:10.748Z,97757.16
2023-03-16T05:40:23.296Z,97756.19
2023-03-16T05:42:46.695Z,97760.66
2023-03-16T05:44:54.794Z,97761.25
2023-03-16T05:47:25.967Z,97759.44
2023-03-16T05:49:37.799Z,97767.22
2023-03-16T05:51:53.442Z,97760.97
2023-03-16T05:54:01.895Z,97766.22
2023-03-16T05:56:16.667Z,97756.41
2023-03-16T05:58:27.017Z,97758.72
2023-03-16T06:00:34.993Z,97764.66
2023-03-16T06:02:57.169Z,97771.75
2023-03-16T06:05:11.301Z,97763.47
2023-03-16T06:07:25.109Z,97768.78
2023-03-16T06:09:36.145Z,97777.25
2023-03-16T06:11:49.832Z,97788.47
2023-03-16T06:13:58.979Z,97785.53
2023-03-16T06:16:07.734Z,97785.47
2023-03-16T06:18:16.836Z,97790.56
2023-03-16T06:20:27.389Z,97794.03
2023-03-16T06:22:39.037Z,97804.06
2023-03-16T06:24:47.536Z,97796.88
2023-03-16T06:26:56.955Z,97808.69
2023-03-16T06:29:13.348Z,97797.72
2023-03-16T06:31:23.250Z,97823.84
2023-03-16T06:33:31.576Z,97831.16
2023-03-16T06:35:39.369Z,97829.47
2023-03-16T06:38:00.436Z,97836.53
2023-03-16T06:40:27.558Z,97831.94
2023-03-16T06:42:36.725Z,97840.19
2023-03-16T06:44:45.749Z,97838.50
2023-03-16T06:46:54.477Z,97836.84
2023-03-16T06:49:02.455Z,97837.75
2023-03-16T06:51:10.853Z,97834.09
2023-03-16T06:53:22.198Z,97839.59
2023-03-16T06:55:30.590Z,97845.81
2023-03-16T06:57:38.364Z,97838.69
2023-03-16T06:59:46.177Z,97843.75
2023-03-16T07:01:54.190Z,97834.47
2023-03-16T07:04:02.086Z,97848.50
2023-03-16T07:06:12.837Z,97854.94
2023-03-16T07:08:23.528Z,97862.31
2023-03-16T07:10:31.762Z,97855.78
2023-03-16T07:12:40.361Z,97853.28
2023-03-16T07:14:51.335Z,97856.94
2023-03-16T07:17:03.898Z,97863.19
2023-03-16T07:19:11.824Z,97875.69
2023-03-16T07:21:20.592Z,97877.06
2023-03-16T07:23:32.419Z,97896.19
2023-03-16T07:25:44.794Z,97920.69
2023-03-16T07:27:53.231Z,97908.59
2023-03-16T07:30:07.902Z,97931.91
2023-03-16T07:32:19.498Z,97905.94
2023-03-16T07:34:28.498Z,97913.47
2023-03-16T07:36:39.214Z,97913.00
2023-03-16T07:38:49.775Z,97910.78
2023-03-16T07:40:58.627Z,97886.38
2023-03-16T07:43:06.531Z,97904.50
2023-03-16T07:45:23.948Z,97898.97
2023-03-16T07:47:31.944Z,97893.47
2023-03-16T07:49:44.586Z,97884.25
2023-03-16T07:51:52.716Z,97868.47
2023-03-16T07:54:11.017Z,97866.28
2023-03-16T07:56:19.595Z,97859.09
2023-03-16T07:58:32.386Z,97852.75
2023-03-16T08:00:42.654Z,97856.38
2023-03-16T08:02:50.830Z,97843.94
2023-03-16T08:04:58.894Z,97852.13
2023-03-16T08:07:06.895Z,97847.78
2023-03-16T08:09:31.977Z,97848.94
2023-03-16T08:11:41.767Z,97850.28
2023-03-16T08:13:54.032Z,97856.44
2023-03-16T08:16:02.284Z,97856.09
2023-03-16T08:18:24.106Z,97850.63
2023-03-16T08:20:33.707Z,97850.66
2023-03-16T08:22:41.957Z,97848.13
2023-03-16T08:24:52.606Z,97853.34
2023-03-16T08:27:01.624Z,97859.31
2023-03-16T08:29:11.464Z,97843.41
2023-03-16T08:31:21.205Z,97850.66
2023-03-16T08:33:52.801Z,97844.63
2023-03-16T08:36:08.957Z,97849.72
2023-03-16T08:38:19.344Z,97843.59
2023-03-16T08:40:30.714Z,97842.81
2023-03-16T08:42:41.424Z,97841.03
2023-03-16T08:44:51.051Z,97832.41
2023-03-16T08:47:00.174Z,97838.34
2023-03-16T08:49:08.631Z,97832.88
2023-03-16T08:51:17.613Z,97841.03
2023-03-16T08:53:25.560Z,97831.88
2023-03-16T08:55:37.068Z,97831.78
2023-03-16T08:57:46.470Z,97836.81
2023-03-16T08:59:54.534Z,97833.00
2023-03-16T09:02:04.552Z,97827.84
2023-03-16T09:04:13.343Z,97825.75
2023-03-16T09:06:22.598Z,97831.16
2023-03-16T09:08:30.632Z,97820.03
2023-03-16T09:10:41.052Z,97821.66
2023-03-16T09:12:49.326Z,97815.81
2023-03-16T09:14:57.116Z,97814.84
2023-03-16T09:17:05.348Z,97822.22
2023-03-16T09:19:13.760Z,97822.09
2023-03-16T09:21:22.021Z,97823.53
2023-03-16T09:23:30.043Z,97821.78
2023-03-16T09:25:40.473Z,97826.84
2023-03-16T09:27:48.348Z,97816.88
2023-03-16T09:29:56.623Z,97817.78
2023-03-16T09:32:05.500Z,97816.94
2023-03-16T09:34:13.261Z,97816.63
2023-03-16T09:36:21.186Z,97844.31
2023-03-16T09:38:29.680Z,97840.44
2023-03-16T09:40:41.605Z,97856.44
2023-03-16T09:43:01.047Z,97863.78
2023-03-16T09:45:21.325Z,97869.22
2023-03-16T09:47:34.884Z,97853.88
2023-03-16T09:49:48.085Z,97870.75
2023-03-16T09:52:03.432Z,97888.03
2023-03-16T09:54:23.196Z,97878.41
2023-03-16T09:56:38.449Z,97874.84
2023-03-16T09:58:46.994Z,97894.56
2023-03-16T10:01:05.135Z,97874.19
2023-03-16T10:03:28.680Z,97871.44
2023-03-16T10:05:38.712Z,97846.16
2023-03-16T10:07:57.189Z,97841.47
2023-03-16T10:10:19.623Z,97828.66
2023-03-16T10:12:38.333Z,97820.16
2023-03-16T10:14:53.269Z,97849.84
2023-03-16T10:17:04.521Z,97861.03
2023-03-16T10:19:19.788Z,97854.72
2023-03-16T10:21:28.493Z,97849.00
2023-03-16T10:23:40.305Z,97848.06
2023-03-16T10:25:51.487Z,97842.13
2023-03-16T10:28:02.311Z,97855.09
2023-03-16T10:30:23.170Z,97846.47
2023-03-16T10:32:35.787Z,97865.50
2023-03-16T10:34:44.982Z,97864.19
2023-03-16T10:36:53.379Z,97865.97
2023-03-16T10:39:06.599Z,97847.41
2023-03-16T10:41:28.727Z,97853.56
2023-03-16T10:43:39.399Z,97851.63
2023-03-16T10:45:50.044Z,97846.88
2023-03-16T10:48:09.370Z,97842.50
2023-03-16T10:50:21.257Z,97835.47
2023-03-16T10:52:36.488Z,97840.63
2023-03-16T10:54:52.694Z,97816.75
2023-03-16T10:57:01.142Z,97811.84
2023-03-16T10:59:38.456Z,97824.06
2023-03-16T11:01:52.394Z,97817.91
2023-03-16T11:04:02.395Z,97817.91
2023-03-16T11:06:20.601Z,97799.84
2023-03-16T11:08:30.979Z,97803.03
2023-03-16T11:10:54.714Z,97797.03
2023-03-16T11:13:14.885Z,97791.72
2023-03-16T11:15:29.393Z,97778.00
2023-03-16T11:17:41.542Z,97782.59
2023-03-16T11:19:55.767Z,97782.06
2023-03-16T11:22:07.592Z,97786.84
2023-03-16T11:24:23.801Z,97796.69
2023-03-16T11:26:36.707Z,97796.28
2023-03-16T11:28:49.719Z,97794.50
2023-03-16T11:31:14.839Z,97775.94
2023-03-16T11:33:27.393Z,97772.44
2023-03-16T11:35:56.600Z,97777.31
2023-03-16T11:38:14.730Z,97779.69
2023-03-16T11:40:35.428Z,97785.22
2023-03-16T11:42:53.916Z,97768.63
2023-03-16T11:45:15.700Z,97776.28
2023-03-16T11:48:02.086Z,97779.03
2023-03-16T11:50:20.839Z,97769.28
2023-03-16T11:52:46.470Z,97769.44
2023-03-16T11:55:04.725Z,97766.31
2023-03-16T11:57:29.903Z,97765.56
2023-03-16T12:00:03.264Z,97757.50
2023-03-16T12:02:34.528Z,97761.28
2023-03-16T12:05:02.871Z,97761.47
2023-03-16T12:07:26.711Z,97756.31
2023-03-16T12:10:01.138Z,97761.78
2023-03-16T12:12:20.717Z,97748.19
2023-03-16T12:14:34.222Z,97752.00
2023-03-16T12:16:50.004Z,97745.25
2023-03-16T12:19:02.880Z,97746.38
2023-03-16T12:21:17.589Z,97731.69
2023-03-16T12:23:32.274Z,97723.53
2023-03-16T12:25:43.766Z,97720.31
2023-03-16T12:27:55.622Z,97716.28
2023-03-16T12:30:16.120Z,97718.44
2023-03-16T12:32:36.707Z,97712.22
2023-03-16T12:34:51.277Z,97723.41
2023-03-16T12:37:10.642Z,97722.38
2023-03-16T12:39:27.369Z,97722.34
2023-03-16T12:41:44.771Z,97725.91
2023-03-16T12:44:11.164Z,97727.78
2023-03-16T12:46:28.028Z,97727.63
2023-03-16T12:48:40.231Z,97721.84
2023-03-16T12:50:54.822Z,97716.00
2023-03-16T12:53:08.364Z,97723.47
2023-03-16T12:55:18.853Z,97727.47
2023-03-16T12:57:28.352Z,97722.47
2023-03-16T12:59:42.946Z,97712.91
2023-03-16T13:01:54.017Z,97720.50
2023-03-16T13:04:05.241Z,97707.47
2023-03-16T13:06:21.715Z,97711.66
2023-03-16T13:08:46.211Z,97709.03
2023-03-16T13:11:05.178Z,97706.44
2023-03-16T13:13:16.236Z,97703.66
2023-03-16T13:15:32.452Z,97714.00
2023-03-16T13:17:40.548Z,97704.78
2023-03-16T13:20:00.919Z,97707.56
2023-03-16T13:22:23.142Z,97709.06
2023-03-16T13:24:40.072Z,97702.03
2023-03-16T13:26:50.930Z,97711.28
2023-03-16T13:28:58.875Z,97711.16
2023-03-16T13:31:09.574Z,97710.00
2023-03-16T13:33:23.491Z,97705.00
2023-03-16T13:35:33.362Z,97699.34
2023-03-16T13:37:43.803Z,97699.53
2023-03-16T13:39:59.948Z,97707.53
2023-03-16T13:42:19.484Z,97694.53
2023-03-16T13:44:28.057Z,97698.50
2023-03-16T13:46:35.980Z,97687.72
2023-03-16T13:48:43.917Z,97690.53
2023-03-16T13:50:57.769Z,97688.97
2023-03-16T13:53:13.250Z,97682.50
2023-03-16T13:55:32.805Z,97687.59
2023-03-16T13:57:43.463Z,97677.88
2023-03-16T13:59:53.691Z,97682.50
2023-03-16T14:02:03.438Z,97669.78
2023-03-16T14:04:18.963Z,97661.09
2023-03-16T14:06:29.143Z,97676.63
2023-03-16T14:08:37.746Z,97671.84
2023-03-16T14:10:49.711Z,97679.97
2023-03-16T14:12:58.881Z,97679.88
2023-03-16T14:15:10.300Z,97676.47
2023-03-16T14:17:21.770Z,97669.53
2023-03-16T14:19:36.052Z,97668.59
2023-03-16T14:21:48.799Z,97663.28
2023-03-16T14:24:02.174Z,97664.09
2023-03-16T14:26:16.186Z,97664.84
2023-03-16T14:28:32.942Z,97660.53
2023-03-16T14:30:40.773Z,97651.34
2023-03-16T14:32:59.443Z,97632.47
2023-03-16T14:35:16.710Z,97623.53
2023-03-16T14:37:25.134Z,97621.28
2023-03-16T14:39:33.518Z,97618.75
2023-03-16T14:41:44.188Z,97620.63
2023-03-16T14:43:54.583Z,97615.75
2023-03-16T14:46:03.171Z,97612.75
2023-03-16T14:48:20.254Z,97604.47
2023-03-16T14:50:28.796Z,97605.66
2023-03-16T14:52:38.255Z,97590.06
2023-03-16T14:54:47.237Z,97589.88
2023-03-16T14:57:03.967Z,97590.22
2023-03-16T14:59:12.327Z,97590.22
2023-03-16T15:01:21.103Z,97599.81
2023-03-16T15:03:36.005Z,97617.47
2023-03-16T15:05:46.378Z,97605.84
2023-03-16T15:07:57.214Z,97608.72
2023-03-16T15:10:10.495Z,97600.19
2023-03-16T15:12:25.142Z,97618.63
2023-03-16T15:14:48.381Z,97630.34
2023-03-16T15:16:56.267Z,97643.22
2023-03-16T15:19:06.146Z,97649.28
2023-03-16T15:21:16.585Z,97643.19
2023-03-16T15:23:26.251Z,97644.28
2023-03-16T15:25:38.654Z,97638.28
2023-03-16T15:27:50.230Z,97633.16
2023-03-16T15:29:58.866Z,97634.94
2023-03-16T15:32:09.096Z,97626.34
2023-03-16T15:34:17.162Z,97622.19
2023-03-16T15:36:25.890Z,97628.25
2023-03-16T15:38:36.896Z,97630.63
2023-03-16T15:40:47.818Z,97635.50
2023-03-16T15:42:58.647Z,97639.16
2023-03-16T15:45:14.174Z,97635.53
2023-03-16T15:47:22.125Z,97612.41
2023-03-16T15:49:37.759Z,97615.09
2023-03-16T15:51:52.812Z,97608.59
2023-03-16T15:54:03.474Z,97612.69
2023-03-16T15:56:14.859Z,97610.69
2023-03-16T15:58:28.386Z,97619.84
2023-03-16T16:00:39.732Z,97620.28
2023-03-16T16:02:48.191Z,97628.09
2023-03-16T16:04:56.280Z,97628.28
2023-03-16T16:07:13.074Z,97622.34
2023-03-16T16:09:23.162Z,97627.47
2023-03-16T16:11:31.488Z,97629.59
2023-03-16T16:13:44.945Z,97630.66
2023-03-16T16:15:54.752Z,97632.03
2023-03-16T16:18:20.961Z,97619.41
2023-03-16T16:20:32.737Z,97619.28
2023-03-16T16:22:40.830Z,97623.44
2023-03-16T16:24:48.877Z,97610.34
2023-03-16T16:26:56.726Z,97600.66
2023-03-16T16:29:14.348Z,97615.13
2023-03-16T16:31:24.924Z,97601.09
2023-03-16T16:33:36.234Z,97602.25
2023-03-16T16:35:45.383Z,97598.31
2023-03-16T16:37:53.475Z,97593.63
2023-03-16T16:40:02.075Z,97589.81
2023-03-16T16:42:17.789Z,97582.75
2023-03-16T16:44:33.865Z,97585.50
2023-03-16T16:46:44.879Z,97594.31
2023-03-16T16:48:55.382Z,97600.03
2023-03-16T16:51:04.145Z,97591.38
2023-03-16T16:53:23.020Z,97579.72
2023-03-16T16:55:31.022Z,97576.16
2023-03-16T16:57:39.605Z,97574.56
2023-03-16T16:59:51.347Z,97567.75
2023-03-16T17:01:59.215Z,97562.19
2023-03-16T17:04:07.145Z,97562.03
2023-03-16T17:06:19.778Z,97564.81
2023-03-16T17:08:28.899Z,97564.97
2023-03-16T17:10:37.983Z,97561.94
2023-03-16T17:12:46.856Z,97550.88
2023-03-16T17:14:57.574Z,97544.78
2023-03-16T17:17:10.190Z,97550.22
2023-03-16T17:19:23.373Z,97552.00
2023-03-16T17:21:34.055Z,97550.06
2023-03-16T17:23:42.170Z,97543.22
2023-03-16T17:25:50.732Z,97540.97
2023-03-16T17:27:59.410Z,97535.47
2023-03-16T17:30:22.290Z,97536.81
2023-03-16T17:32:30.437Z,97532.75
2023-03-16T17:34:38.351Z,97535.31
2023-03-16T17:36:46.580Z,97536.56
2023-03-16T17:38:54.417Z,97531.66
2023-03-16T17:41:04.130Z,97535.44
2023-03-16T17:43:17.012Z,97528.63
2023-03-16T17:45:35.987Z,97536.28
2023-03-16T17:47:43.885Z,97528.63
2023-03-16T17:49:52.017Z,97528.53
2023-03-16T17:52:00.015Z,97516.03
2023-03-16T17:54:08.389Z,97530.41
2023-03-16T17:56:20.090Z,97523.19
2023-03-16T17:58:32.650Z,97528.38
2023-03-16T18:00:47.039Z,97534.16
2023-03-16T18:02:56.871Z,97527.91
2023-03-16T18:05:05.710Z,97532.19
2023-03-16T18:07:16.887Z,97524.81
2023-03-16T18:09:24.769Z,97510.47
2023-03-16T18:11:40.006Z,97515.88
2023-03-16T18:13:49.329Z,97512.28
2023-03-16T18:16:00.490Z,97519.38
2023-03-16T18:18:10.506Z,97514.63
2023-03-16T18:20:27.870Z,97518.84
2023-03-16T18:22:36.441Z,97517.31
2023-03-16T18:24:45.258Z,97516.69
2023-03-16T18:26:53.682Z,97522.72
2023-03-16T18:29:01.698Z,97514.50
2023-03-16T18:31:21.630Z,97522.03
2023-03-16T18:33:33.049Z,97515.25
2023-03-16T18:35:41.421Z,97521.97
2023-03-16T18:37:50.145Z,97514.47
2023-03-16T18:39:58.257Z,97518.91
2023-03-16T18:42:06.710Z,97510.38
2023-03-16T18:44:20.781Z,97517.94
2023-03-16T18:46:35.670Z,97514.63
2023-03-16T18:48:43.845Z,97503.19
2023-03-16T18:50:52.254Z,97504.75
2023-03-16T18:53:00.637Z,97505.75
2023-03-16T18:55:17.455Z,97498.19
2023-03-16T18:57:29.392Z,97501.22
2023-03-16T18:59:37.494Z,97492.63
2023-03-16T19:01:49.728Z,97496.50
2023-03-16T19:03:58.892Z,97490.03
2023-03-16T19:06:07.758Z,97495.69
2023-03-16T19:08:16.823Z,97488.78
2023-03-16T19:10:28.266Z,97494.44
2023-03-16T19:12:36.348Z,97484.47
2023-03-16T19:14:44.351Z,97483.94
2023-03-16T19:16:55.732Z,97486.78
2023-03-16T19:19:03.594Z,97478.06
2023-03-16T19:21:16.580Z,97479.00
2023-03-16T19:23:28.770Z,97479.53
2023-03-16T19:25:39.304Z,97470.81
2023-03-16T19:27:48.557Z,97481.75
2023-03-16T19:29:58.189Z,97476.72
2023-03-16T19:32:09.118Z,97469.03
2023-03-16T19:34:19.732Z,97471.69
2023-03-16T19:36:45.149Z,97474.00
2023-03-16T19:38:53.879Z,97471.84
2023-03-16T19:41:03.317Z,97466.75
2023-03-16T19:43:19.283Z,97468.97
2023-03-16T19:45:33.419Z,97475.19
2023-03-16T19:47:44.481Z,97468.47
2023-03-16T19:49:52.278Z,97463.66
2023-03-16T19:52:00.696Z,97463.69
2023-03-16T19:54:08.898Z,97469.50
2023-03-16T19:56:19.072Z,97465.72
2023-03-16T19:58:34.325Z,97463.69
2023-03-16T20:00:43.053Z,97467.34
2023-03-16T20:02:55.421Z,97468.59
2023-03-16T20:05:03.733Z,97466.91
2023-03-16T20:07:17.732Z,97467.09
2023-03-16T20:09:26.339Z,97456.16
2023-03-16T20:11:35.520Z,97454.63
2023-03-16T20:13:43.585Z,97458.31
2023-03-16T20:15:51.707Z,97448.66
2023-03-16T20:18:03.183Z,97447.16
2023-03-16T20:20:21.958Z,97453.44
2023-03-16T20:22:31.130Z,97449.94
2023-03-16T20:24:39.104Z,97450.28
2023-03-16T20:26:48.364Z,97438.91
2023-03-16T20:28:56.705Z,97445.75
2023-03-16T20:31:04.923Z,97450.63
2023-03-16T20:33:19.899Z,97448.59
2023-03-16T20:35:32.520Z,97443.91
2023-03-16T20:37:41.587Z,97443.09
2023-03-16T20:39:49.644Z,97447.88
2023-03-16T20:41:57.504Z,97449.34
2023-03-16T20:44:06.138Z,97455.13
2023-03-16T20:46:20.595Z,97457.69
2023-03-16T20:48:32.261Z,97455.47
2023-03-16T20:50:40.166Z,97454.53
2023-03-16T20:52:48.214Z,97453.16
2023-03-16T20:55:00.783Z,97444.72
2023-03-16T20:57:13.492Z,97441.84
2023-03-16T20:59:34.802Z,97441.16
2023-03-16T21:01:45.708Z,97437.22
2023-03-16T21:04:00.264Z,97435.44
2023-03-16T21:06:16.953Z,97444.47
2023-03-16T21:08:24.969Z,97440.69
2023-03-16T21:10:32.766Z,97439.19
2023-03-16T21:12:46.300Z,97440.78
2023-03-16T21:14:54.487Z,97447.75
2023-03-16T21:17:02.772Z,97440.19
2023-03-16T21:19:18.638Z,97435.66
2023-03-16T21:21:26.918Z,97431.16
2023-03-16T21:23:34.879Z,97431.50
2023-03-16T21:25:48.121Z,97427.91
2023-03-16T21:27:57.983Z,97426.03
2023-03-16T21:30:10.523Z,97426.97
2023-03-16T21:32:22.855Z,97432.25
2023-03-16T21:34:38.422Z,97428.84
2023-03-16T21:36:47.947Z,97422.88
2023-03-16T21:38:56.533Z,97422.53
2023-03-16T21:41:04.658Z,97419.91
2023-03-16T21:43:13.196Z,97427.06
2023-03-16T21:45:21.566Z,97420.75
2023-03-16T21:47:32.038Z,97421.19
2023-03-16T21:49:42.472Z,97416.75
2023-03-16T21:51:52.177Z,97413.16
2023-03-16T21:54:01.746Z,97417.44
2023-03-16T21:56:13.197Z,97418.28
2023-03-16T21:58:35.061Z,97411.47
2023-03-16T22:00:43.570Z,97405.53
2023-03-16T22:02:53.794Z,97403.00
2023-03-16T22:05:05.167Z,97401.19
2023-03-16T22:07:14.075Z,97404.69
2023-03-16T22:09:25.151Z,97398.56
2023-03-16T22:11:34.509Z,97409.88
2023-03-16T22:13:47.653Z,97404.75
2023-03-16T22:15:58.862Z,97406.78
2023-03-16T22:18:20.331Z,97405.59
2023-03-16T22:20:31.158Z,97398.63
2023-03-16T22:22:39.102Z,97399.56
2023-03-16T22:24:47.534Z,97395.44
2023-03-16T22:26:56.865Z,97391.78
2023-03-16T22:29:06.048Z,97394.66
2023-03-16T22:31:18.932Z,97395.44
2023-03-16T22:33:30.686Z,97395.19
2023-03-16T22:35:42.148Z,97387.09
2023-03-16T22:37:50.259Z,97390.00
2023-03-16T22:39:58.733Z,97383.09
2023-03-16T22:42:19.404Z,97378.03
2023-03-16T22:45:08.756Z,97377.88
2023-03-16T22:47:42.845Z,97376.31
2023-03-16T22:49:54.319Z,97371.69
2023-03-16T22:52:04.752Z,97370.00
2023-03-16T22:54:19.210Z,97370.59
2023-03-16T22:56:27.725Z,97365.41
2023-03-16T22:58:39.531Z,97356.69
2023-03-16T23:00:47.652Z,97360.03
2023-03-16T23:02:55.695Z,97362.53
2023-03-16T23:05:03.681Z,97359.34
2023-03-16T23:07:16.955Z,97354.41
2023-03-16T23:09:25.480Z,97354.63
2023-03-16T23:11:36.515Z,97356.53
2023-03-16T23:13:44.942Z,97355.44
2023-03-16T23:15:55.433Z,97347.22
2023-03-16T23:18:03.215Z,97347.47
2023-03-16T23:20:21.848Z,97351.50
2023-03-16T23:22:32.910Z,97348.16
2023-03-16T23:24:41.255Z,97344.84
2023-03-16T23:26:49.547Z,97342.25
2023-03-16T23:28:59.624Z,97340.66
2023-03-16T23:31:07.920Z,97343.53
2023-03-16T23:33:16.907Z,97336.22
2023-03-16T23:35:28.005Z,97335.13
2023-03-16T23:37:38.351Z,97338.69
2023-03-16T23:39:47.246Z,97333.25
2023-03-16T23:41:56.402Z,97336.47
2023-03-16T23:44:04.873Z,97332.78
2023-03-16T23:46:13.595Z,97333.81
2023-03-16T23:48:24.330Z,97334.59
2023-03-16T23:50:35.432Z,97329.63
2023-03-16T23:52:46.636Z,97337.72
2023-03-16T23:54:54.656Z,97332.59
2023-03-16T23:57:02.534Z,97329.56
2023-03-16T23:59:10.757Z,97339.56
